createdAt,value
2023-01-08T00:03:14.980Z,9.63
2023-01-08T00:07:17.618Z,9.65
2023-01-08T00:11:19.186Z,9.68
2023-01-08T00:15:20.730Z,9.71
2023-01-08T00:19:22.363Z,9.70
2023-01-08T00:23:24.472Z,9.71
2023-01-08T00:27:26.088Z,9.70
2023-01-08T00:31:27.656Z,9.73
2023-01-08T00:35:29.338Z,9.73
2023-01-08T00:39:30.916Z,9.74
2023-01-08T00:43:32.682Z,9.75
2023-01-08T00:47:34.254Z,9.77
2023-01-08T00:51:35.875Z,9.77
2023-01-08T00:55:37.426Z,9.77
2023-01-08T00:59:38.935Z,9.71
2023-01-08T01:03:40.988Z,9.70
2023-01-08T01:07:43.910Z,9.67
2023-01-08T01:11:45.525Z,9.68
2023-01-08T01:15:56.996Z,9.62
2023-01-08T01:19:58.580Z,9.56
2023-01-08T01:24:03.965Z,9.56
2023-01-08T01:28:05.538Z,9.58
2023-01-08T01:32:07.193Z,9.58
2023-01-08T01:36:11.086Z,9.58
2023-01-08T01:40:12.712Z,9.60
2023-01-08T01:44:43.778Z,9.63
2023-01-08T01:48:46.578Z,9.60
2023-01-08T01:52:53.801Z,9.62
2023-01-08T01:56:56.427Z,9.59
2023-01-08T02:01:01.474Z,9.58
2023-01-08T02:05:03.490Z,9.55
2023-01-08T02:09:30.790Z,9.53
2023-01-08T02:13:36.933Z,9.52
2023-01-08T02:17:56.862Z,9.50
2023-01-08T02:22:36.362Z,9.49
2023-01-08T02:26:38.450Z,9.48
2023-01-08T02:30:40.547Z,9.45
2023-01-08T02:34:42.077Z,9.44
2023-01-08T02:39:12.805Z,9.41
2023-01-08T02:43:21.821Z,9.41
2023-01-08T02:47:32.153Z,9.42
2023-01-08T02:51:51.389Z,9.37
2023-01-08T02:55:58.981Z,9.34
2023-01-08T03:00:00.522Z,9.35
2023-01-08T03:04:13.951Z,9.34
2023-01-08T03:08:17.401Z,9.32
2023-01-08T03:12:25.270Z,9.31
2023-01-08T03:16:35.561Z,9.26
2023-01-08T03:20:38.847Z,9.20
2023-01-08T03:24:42.692Z,9.16
2023-01-08T03:28:47.275Z,9.13
2023-01-08T03:32:51.390Z,9.15
2023-01-08T03:36:55.537Z,9.15
2023-01-08T03:41:05.123Z,9.15
2023-01-08T03:45:07.293Z,9.17
2023-01-08T03:49:09.441Z,9.22
2023-01-08T03:53:11.025Z,9.22
2023-01-08T03:57:12.588Z,9.23
2023-01-08T04:01:14.338Z,9.22
2023-01-08T04:05:16.055Z,9.20
2023-01-08T04:09:17.651Z,9.19
2023-01-08T04:13:19.201Z,9.19
2023-01-08T04:17:20.771Z,9.17
2023-01-08T04:21:22.301Z,9.15
2023-01-08T04:25:23.837Z,9.10
2023-01-08T04:29:25.574Z,9.03
2023-01-08T04:33:27.098Z,8.97
2023-01-08T04:37:28.626Z,8.94
2023-01-08T04:41:30.192Z,8.91
2023-01-08T04:45:31.731Z,8.88
2023-01-08T04:49:33.268Z,8.82
2023-01-08T04:53:37.464Z,8.82
2023-01-08T04:57:38.994Z,8.83
2023-01-08T05:01:40.634Z,8.80
2023-01-08T05:05:42.226Z,8.80
2023-01-08T05:09:43.729Z,8.82
2023-01-08T05:13:48.906Z,8.79
2023-01-08T05:17:58.179Z,8.78
2023-01-08T05:21:59.807Z,8.73
2023-01-08T05:26:03.699Z,8.75
2023-01-08T05:30:05.872Z,8.73
2023-01-08T05:34:07.411Z,8.75
2023-01-08T05:38:08.977Z,8.75
2023-01-08T05:42:10.531Z,8.75
2023-01-08T05:46:12.218Z,8.75
2023-01-08T05:50:13.817Z,8.75
2023-01-08T05:54:15.901Z,8.78
2023-01-08T05:58:20.986Z,8.79
2023-01-08T06:02:22.542Z,8.83
2023-01-08T06:06:24.191Z,8.80
2023-01-08T06:10:26.319Z,8.83
2023-01-08T06:14:27.877Z,8.86
2023-01-08T06:18:30.375Z,8.86
2023-01-08T06:22:33.544Z,8.88
2023-01-08T06:26:35.447Z,8.91
2023-01-08T06:30:37.006Z,8.96
2023-01-08T06:34:38.557Z,8.97
2023-01-08T06:38:40.122Z,9.01
2023-01-08T06:42:43.222Z,9.04
2023-01-08T06:46:44.958Z,9.08
2023-01-08T06:50:46.641Z,9.10
2023-01-08T06:54:48.231Z,9.15
2023-01-08T06:58:49.806Z,9.16
2023-01-08T07:02:52.210Z,9.16
2023-01-08T07:06:53.865Z,9.19
2023-01-08T07:10:55.706Z,9.19
2023-01-08T07:14:57.301Z,9.20
2023-01-08T07:18:58.912Z,9.22
2023-01-08T07:23:05.242Z,9.23
2023-01-08T07:27:06.906Z,9.23
2023-01-08T07:31:08.940Z,9.23
2023-01-08T07:35:10.538Z,9.22
2023-01-08T07:39:12.123Z,9.24
2023-01-08T07:43:14.208Z,9.24
2023-01-08T07:47:16.041Z,9.24
2023-01-08T07:51:17.646Z,9.20
2023-01-08T07:55:19.271Z,9.23
2023-01-08T07:59:20.898Z,9.24
2023-01-08T08:03:22.978Z,9.24
2023-01-08T08:07:24.815Z,9.24
2023-01-08T08:11:26.380Z,9.27
2023-01-08T08:15:27.966Z,9.27
2023-01-08T08:19:29.517Z,9.27
2023-01-08T08:23:32.408Z,9.30
2023-01-08T08:27:33.948Z,9.32
2023-01-08T08:31:35.657Z,9.35
2023-01-08T08:35:37.843Z,9.35
2023-01-08T08:39:39.428Z,9.35
2023-01-08T08:43:41.017Z,9.40
2023-01-08T08:47:42.642Z,9.42
2023-01-08T08:51:44.283Z,9.42
2023-01-08T08:55:45.845Z,9.42
2023-01-08T08:59:47.413Z,9.45
2023-01-08T09:03:49.784Z,9.49
2023-01-08T09:07:52.153Z,9.50
2023-01-08T09:11:54.225Z,9.53
2023-01-08T09:15:58.431Z,9.58
2023-01-08T09:20:00.048Z,9.60
2023-01-08T09:24:01.784Z,9.59
2023-01-08T09:28:06.404Z,9.63
2023-01-08T09:32:08.884Z,9.70
2023-01-08T09:36:11.739Z,9.75
2023-01-08T09:40:16.396Z,9.83
2023-01-08T09:44:24.882Z,9.91
2023-01-08T09:48:29.878Z,9.92
2023-01-08T09:52:32.329Z,9.98
2023-01-08T09:56:35.468Z,9.98
2023-01-08T10:00:37.142Z,10.01
2023-01-08T10:04:38.770Z,10.01
2023-01-08T10:08:40.958Z,10.04
2023-01-08T10:12:42.618Z,10.06
2023-01-08T10:16:46.464Z,10.06
2023-01-08T10:20:47.980Z,10.10
2023-01-08T10:24:51.660Z,10.09
2023-01-08T10:29:18.638Z,10.13
2023-01-08T10:33:25.635Z,10.16
2023-01-08T10:37:37.564Z,10.20
2023-01-08T10:41:39.855Z,10.28
2023-01-08T10:45:42.984Z,10.36
2023-01-08T10:49:45.511Z,10.44
2023-01-08T10:53:47.572Z,10.44
2023-01-08T10:58:00.001Z,10.43
2023-01-08T11:02:02.295Z,10.47
2023-01-08T11:06:19.078Z,10.58
2023-01-08T11:10:26.891Z,10.70
2023-01-08T11:14:35.229Z,10.93
2023-01-08T11:18:46.714Z,11.01
2023-01-08T11:22:48.392Z,11.02
2023-01-08T11:27:12.821Z,11.16
2023-01-08T11:31:21.439Z,11.23
2023-01-08T11:35:50.325Z,11.42
2023-01-08T11:39:53.762Z,11.42
2023-01-08T11:44:20.211Z,11.56
2023-01-08T11:48:30.582Z,11.66
2023-01-08T11:52:57.047Z,11.67
2023-01-08T11:56:58.560Z,11.75
2023-01-08T12:01:07.532Z,11.74
2023-01-08T12:05:35.176Z,11.81
2023-01-08T12:09:46.255Z,11.97
2023-01-08T12:14:06.515Z,12.05
2023-01-08T12:18:35.639Z,12.05
2023-01-08T12:22:47.060Z,11.93
2023-01-08T12:27:54.668Z,11.85
2023-01-08T12:32:18.758Z,11.78
2023-01-08T12:36:36.167Z,11.81
2023-01-08T12:40:45.040Z,11.77
2023-01-08T12:44:47.572Z,11.79
2023-01-08T12:48:52.025Z,11.70
2023-01-08T12:53:12.911Z,11.66
2023-01-08T12:57:37.960Z,11.63
2023-01-08T13:02:07.382Z,11.63
2023-01-08T13:06:13.656Z,11.60
2023-01-08T13:10:41.021Z,11.59
2023-01-08T13:14:45.950Z,11.56
2023-01-08T13:19:01.319Z,11.53
2023-01-08T13:23:05.500Z,11.45
2023-01-08T13:27:17.281Z,11.42
2023-01-08T13:31:21.572Z,11.42
2023-01-08T13:35:26.660Z,11.44
2023-01-08T13:39:36.644Z,11.45
2023-01-08T13:43:40.270Z,11.46
2023-01-08T13:47:43.209Z,11.44
2023-01-08T13:51:47.330Z,11.41
2023-01-08T13:56:01.131Z,11.36
2023-01-08T14:00:05.647Z,11.35
2023-01-08T14:04:07.107Z,11.36
2023-01-08T14:08:21.843Z,11.36
2023-01-08T14:12:24.979Z,11.36
2023-01-08T14:16:26.607Z,11.35
2023-01-08T14:20:31.240Z,11.33
2023-01-08T14:24:33.566Z,11.33
2023-01-08T14:28:35.529Z,11.30
2023-01-08T14:32:43.145Z,11.33
2023-01-08T14:36:45.320Z,11.33
2023-01-08T14:41:01.778Z,11.35
2023-01-08T14:45:14.824Z,11.31
2023-01-08T14:49:27.651Z,11.36
2023-01-08T14:53:36.714Z,11.30
2023-01-08T14:57:38.320Z,11.26
2023-01-08T15:01:40.181Z,11.26
2023-01-08T15:05:49.044Z,11.21
2023-01-08T15:09:58.974Z,11.16
2023-01-08T15:14:00.669Z,11.06
2023-01-08T15:18:05.617Z,11.02
2023-01-08T15:22:17.315Z,10.93
2023-01-08T15:26:19.067Z,10.84
2023-01-08T15:30:43.719Z,10.80
2023-01-08T15:34:46.243Z,10.81
2023-01-08T15:38:48.828Z,10.80
2023-01-08T15:43:08.952Z,10.80
2023-01-08T15:47:10.560Z,10.78
2023-01-08T15:51:12.161Z,10.80
2023-01-08T15:55:19.014Z,10.80
2023-01-08T15:59:20.575Z,10.78
2023-01-08T16:03:25.337Z,10.75
2023-01-08T16:07:26.845Z,10.73
2023-01-08T16:11:28.457Z,10.73
2023-01-08T16:15:30.927Z,10.72
2023-01-08T16:19:32.817Z,10.73
2023-01-08T16:23:35.732Z,10.69
2023-01-08T16:27:38.423Z,10.66
2023-01-08T16:31:44.516Z,10.63
2023-01-08T16:35:56.614Z,10.57
2023-01-08T16:39:58.139Z,10.49
2023-01-08T16:43:59.689Z,10.43
2023-01-08T16:48:02.939Z,10.36
2023-01-08T16:52:04.825Z,10.31
2023-01-08T16:56:08.120Z,10.29
2023-01-08T17:00:10.421Z,10.22
2023-01-08T17:04:12.077Z,10.18
2023-01-08T17:08:16.227Z,10.14
2023-01-08T17:12:22.530Z,10.13
2023-01-08T17:16:24.410Z,10.09
2023-01-08T17:20:26.032Z,10.01
2023-01-08T17:24:27.654Z,9.95
2023-01-08T17:28:29.625Z,9.91
2023-01-08T17:32:31.228Z,9.88
2023-01-08T17:36:34.053Z,9.81
2023-01-08T17:40:36.324Z,9.74
2023-01-08T17:44:37.982Z,9.71
2023-01-08T17:48:41.919Z,9.68
2023-01-08T17:52:43.562Z,9.65
2023-01-08T17:56:45.685Z,9.63
2023-01-08T18:00:47.328Z,9.63
2023-01-08T18:04:49.021Z,9.67
2023-01-08T18:08:50.586Z,9.67
2023-01-08T18:12:52.160Z,9.68
2023-01-08T18:16:53.790Z,9.71
2023-01-08T18:20:55.643Z,9.73
2023-01-08T18:24:57.189Z,9.73
2023-01-08T18:28:58.792Z,9.73
2023-01-08T18:33:00.316Z,9.74
2023-01-08T18:37:01.882Z,9.74
2023-01-08T18:41:04.088Z,9.74
2023-01-08T18:45:06.230Z,9.74
2023-01-08T18:49:07.863Z,9.74
2023-01-08T18:53:09.711Z,9.74
2023-01-08T18:57:11.511Z,9.75
2023-01-08T19:01:13.659Z,9.78
2023-01-08T19:05:17.265Z,9.75
2023-01-08T19:09:18.961Z,9.75
2023-01-08T19:13:20.761Z,9.77
2023-01-08T19:17:22.373Z,9.77
2023-01-08T19:21:23.998Z,9.80
2023-01-08T19:25:25.808Z,9.80
2023-01-08T19:29:27.333Z,9.83
2023-01-08T19:33:29.326Z,9.83
2023-01-08T19:37:32.258Z,9.83
2023-01-08T19:41:52.489Z,9.85
2023-01-08T19:45:54.133Z,9.85
2023-01-08T19:49:55.691Z,9.88
2023-01-08T19:53:58.205Z,9.89
2023-01-08T19:57:59.844Z,9.89
2023-01-08T20:02:01.729Z,9.91
2023-01-08T20:06:36.014Z,9.89
2023-01-08T20:10:37.538Z,9.88
2023-01-08T20:14:39.178Z,9.89
2023-01-08T20:18:41.210Z,9.88
2023-01-08T20:22:42.815Z,9.86
2023-01-08T20:26:45.409Z,9.85
2023-01-08T20:30:47.083Z,9.83
2023-01-08T20:34:48.721Z,9.83
2023-01-08T20:38:52.676Z,9.83
2023-01-08T20:42:54.273Z,9.81
2023-01-08T20:46:55.800Z,9.81
2023-01-08T20:50:59.958Z,9.83
2023-01-08T20:55:01.618Z,9.85
2023-01-08T20:59:03.764Z,9.85
2023-01-08T21:03:05.463Z,9.85
2023-01-08T21:07:07.966Z,9.85
2023-01-08T21:11:10.591Z,9.83
2023-01-08T21:15:12.428Z,9.81
2023-01-08T21:19:15.300Z,9.81
2023-01-08T21:23:16.809Z,9.80
2023-01-08T21:27:18.417Z,9.78
2023-01-08T21:31:22.476Z,9.77
2023-01-08T21:35:25.502Z,9.75
2023-01-08T21:39:27.088Z,9.75
2023-01-08T21:43:47.483Z,9.74
2023-01-08T21:47:49.204Z,9.75
2023-01-08T21:52:09.695Z,9.74
2023-01-08T21:56:11.293Z,9.73
2023-01-08T22:00:14.388Z,9.71
2023-01-08T22:04:16.009Z,9.68
2023-01-08T22:08:18.480Z,9.68
2023-01-08T22:12:20.644Z,9.67
2023-01-08T22:16:22.209Z,9.63
2023-01-08T22:20:23.959Z,9.63
2023-01-08T22:24:25.619Z,9.53
2023-01-08T22:28:27.170Z,9.60
2023-01-08T22:32:28.755Z,9.60
2023-01-08T22:36:30.368Z,9.59
2023-01-08T22:40:31.933Z,9.58
2023-01-08T22:44:33.726Z,9.59
2023-01-08T22:48:35.398Z,9.58
2023-01-08T22:52:36.951Z,9.60
2023-01-08T22:56:38.904Z,9.55
2023-01-08T23:00:40.927Z,9.55
2023-01-08T23:04:42.572Z,9.56
2023-01-08T23:08:44.778Z,9.58
2023-01-08T23:12:46.527Z,9.59
2023-01-08T23:16:48.117Z,9.60
2023-01-08T23:20:49.711Z,9.58
2023-01-08T23:24:51.380Z,9.59
2023-01-08T23:28:54.194Z,9.59
2023-01-08T23:32:55.704Z,9.56
2023-01-08T23:36:57.316Z,9.56
2023-01-08T23:40:59.419Z,9.55
2023-01-08T23:45:01.017Z,9.52
2023-01-08T23:49:02.655Z,9.52
2023-01-08T23:53:04.500Z,9.53
2023-01-08T23:57:06.590Z,9.52
